Weather observations for the past three days for
Pine Bluffs Municipal Airport
Imperial (Metric)
Date Time (mdt) Wind (mph) Vis. (mi.) Weather Sky Cond. Temperature (ºF) Relative Humidity Wind Chill (°F) Heat Index (°F) Pressure Precipitation (in)
Air Dwpt 6 hour altimeter (in) sea level (mb) 1 hr 3 hr 6 hr
Max. Min.
05 05:35 W 8 10.00 Fair CLR 52.7 49.1 88% 30.07 0.0
05 05:15 Calm 9.00 Fair CLR 53.2 50.2 89% 30.08 0.0
05 04:55 Calm 10.00 Fair CLR 53.6 50.7 90% 30.08 0.0
05 04:35 Calm 9.00 Fair CLR 53.8 50.9 90% 30.08 0.0
05 04:15 W 6 10.00 Fair CLR 55.8 51.4 86% 30.07 0.0
05 03:55 W 6 10.00 Fair CLR 57.4 51.8 82% 30.07 0.0
05 03:35 W 7 10.00 Fair CLR 55.8 51.4 86% 30.07 0.0
05 03:15 W 7 9.00 Fair CLR 55.4 52 88% 30.07 0.0
05 02:55 W 7 10.00 Fair CLR 57.4 52.5 84% 30.07 0.0
05 02:35 W 8 10.00 Fair CLR 56.5 52.7 87% 30.07 0.0
05 02:15 W 5 10.00 Fair CLR 57 53.4 88% 30.07 0.0
05 01:55 Calm 10.00 Fair CLR 57.4 52.7 84% 30.07 0.0
05 01:35 N 3 10.00 Fair CLR 56.8 53.1 87% 30.06 0.0
05 01:15 W 5 10.00 Fair CLR 56.1 52.7 88% 30.06 0.0
05 00:55 W 5 10.00 Fair CLR 57 53.8 89% 30.06 0.0
05 00:35 Calm 10.00 Fair CLR 57.9 53.8 86% 30.06 0.0
05 00:15 Calm 10.00 Fair CLR 59.7 52.3 77% 30.06 0.0
04 23:55 S 7 10.00 Fair CLR 69.6 47.3 86.7 59.2 45% 30.06 0.0
04 23:35 SE 8 10.00 Fair CLR 65.3 49.3 56% 30.06 0.0
04 23:15 Vrbl 3 10.00 Fair CLR 60.1 53.4 79% 30.06 0.0
04 22:55 Calm 10.00 Fair CLR 66.9 48.6 52% 30.06 0.0
04 22:35 SE 5 10.00 Fair CLR 70 46.4 43% 30.06 0.0
04 22:15 SE 7 10.00 Fair CLR 67.5 48 50% 30.07 0.0
04 21:55 Calm 10.00 Fair CLR 64.2 52 65% 30.06 0.0
04 21:35 Calm 10.00 Fair CLR 66.2 49.8 56% 30.06 0.0
04 21:15 Calm 10.00 Fair CLR 65.7 49.8 57% 30.06 0.0
04 20:55 SE 7 10.00 Fair CLR 70.3 48.2 45% 30.05 0.0
04 20:35 S 8 10.00 Fair CLR 71.1 48.9 46% 30.05 0.0
04 20:15 SE 8 10.00 Fair CLR 73 48.4 42% 30.04 0.0
04 19:55 SE 7 10.00 Fair CLR 74.5 48.9 41% 30.03 0.0
04 19:35 SE 8 10.00 Fair CLR 76.1 48.7 38% 78 30.03 0.0
04 19:15 SE 7 10.00 Fair CLR 79 48.6 34% 79 30.03 0.0
04 18:55 SE 9 10.00 Fair CLR 83.1 46.8 28% 81 30.03 0.0
04 18:35 SE 9 10.00 Fair CLR 84.7 45 25% 82 30.03 0.0
04 18:15 SE 13 10.00 Fair CLR 86 43.7 23% 83 30.02 0.0
04 17:55 SE 15 10.00 Fair CLR 87.3 43.3 91.6 87.3 22% 84 30.02 0.0
04 17:35 S 14 10.00 Fair CLR 88.2 43 21% 85 30.02 0.0
04 17:15 SE 13 10.00 Fair CLR 89.1 43.3 20% 85 30.02 0.0
04 16:55 S 12 10.00 Fair CLR 89.8 41.5 18% 86 30.02 0.0
04 16:35 S 12 10.00 Fair CLR 90.1 41.2 18% 86 30.02 0.0
04 16:15 S 9 10.00 Fair CLR 90.3 41.2 18% 86 30.02 0.0
04 15:55 S 14 G 18 10.00 Fair CLR 90.5 40.8 18% 87 30.03 0.0
04 15:35 SE 14 10.00 Fair CLR 90.5 41.4 18% 87 30.03 0.0
04 15:15 S 17 10.00 Fair CLR 90.7 42.4 19% 87 30.03 0.0
04 14:55 SW 10 10.00 Fair CLR 90.9 42.1 18% 87 30.03 0.0
04 14:35 SW 7 10.00 Fair CLR 91.2 44.1 19% 87 30.03 0.0
04 14:15 Vrbl 3 10.00 Fair CLR 91 43 19% 87 30.03 0.0
04 13:55 Vrbl 6 10.00 Fair CLR 88.9 43.3 20% 85 30.03 0.0
04 13:35 S 10 10.00 Fair CLR 90.9 45 20% 87 30.04 0.0
04 13:15 Calm 10.00 Fair CLR 90 44.8 21% 86 30.04 0.0
04 12:55 Calm 10.00 Fair CLR 89.6 42.4 19% 86 30.04 0.0
04 12:35 S 3 10.00 Fair CLR 89.4 42.3 19% 86 30.05 0.0
04 12:15 NW 9 10.00 Fair CLR 88.7 44.4 21% 85 30.06 0.0
04 11:55 Vrbl 6 10.00 Fair CLR 87.1 45.1 87.4 52.2 23% 84 30.06 0.0
04 11:35 N 9 10.00 Fair CLR 86.7 46.8 25% 84 30.06 0.0
04 11:15 N 10 10.00 Fair CLR 86 45.7 25% 83 30.07 0.0
04 10:55 Vrbl 6 10.00 Fair CLR 84.4 45 25% 82 30.07 0.0
04 10:35 Vrbl 3 10.00 Fair CLR 82.8 45.7 27% 81 30.07 0.0
04 09:15 Calm 10.00 Fair CLR 73.4 52.2 47% 30.06 0.0
04 08:55 Calm 10.00 Fair CLR 68 53.4 60% 30.06 0.0
04 08:35 Calm 10.00 Fair CLR 65.1 53.4 66% 30.06 0.0
04 08:15 SW 3 10.00 Fair CLR 63.1 52.3 68% 30.05 0.0
04 07:55 Calm 10.00 Fair CLR 59.5 51.3 74% 30.05 0.0
04 07:35 Calm 9.00 Fair CLR 57.6 51.4 80% 30.05 0.0
04 07:15 W 3 9.00 Fair CLR 54.9 51.3 88% 30.04 0.0
04 06:55 Calm 9.00 Fair CLR 52.2 50 92% 30.03 0.0
04 06:35 Calm 9.00 Fair CLR 53.1 50 89% 30.04 0.0
04 06:15 SW 3 8.00 Fair CLR 53.2 50.7 91% 30.02 0.0
04 05:55 W 7 9.00 Fair CLR 54.1 51.3 71.2 54.1 90% 30.02 0.0
04 05:35 W 6 10.00 Fair CLR 55.4 52.2 89% 30.02 0.0
04 05:15 W 5 10.00 Fair CLR 56.8 52.9 87% 30.02 0.0
04 04:55 W 10 10.00 Fair CLR 62.2 52.5 71% 30.02 0.0
04 04:35 W 6 10.00 Fair CLR 58.6 52.5 80% 30.01 0.0
04 04:15 S 7 10.00 Fair CLR 61.3 52.7 73% 30 0.0
04 03:55 S 9 10.00 Fair CLR 61 52.7 74% 30.01 0.0
04 03:35 SW 8 10.00 Fair CLR 61.3 52.9 74% 30.01 0.0
04 03:15 SW 9 10.00 Fair CLR 62.1 53.1 73% 30.01 0.0
04 02:55 S 9 10.00 Fair CLR 65.8 52.5 62% 30.01 0.0
04 02:35 S 12 10.00 Fair CLR 67.1 52.3 59% 30.01 0.0
04 02:15 SW 9 10.00 Fair CLR 66 52.3 62% 30.01 0.0
04 01:55 SE 13 10.00 Fair CLR 68 51.8 56% 30.01 0.0
04 01:35 S 12 10.00 Fair CLR 68.5 51.8 55% 30.02 0.0
04 01:15 SE 14 10.00 Fair CLR 69.3 51.1 53% 30.02 0.0
04 00:55 SE 10 10.00 Fair CLR 68.5 49.1 50% 30.02 0.0
04 00:35 SE 10 10.00 Fair CLR 69.1 49.1 49% 30.02 0.0
04 00:15 SE 10 10.00 Fair CLR 70.2 49.1 47% 30.01 0.0
03 23:55 SE 16 10.00 Fair CLR 71.2 48.7 83.1 66.7 45% 30.01 0.0
03 23:35 SE 15 10.00 Fair CLR 71.2 49.1 46% 30.01 0.0
03 23:15 SE 13 10.00 Fair CLR 71.2 48.7 45% 30.01 0.0
03 22:55 SE 14 10.00 Fair CLR 70.9 48.2 45% 30.01 0.0
03 22:35 SE 15 10.00 Fair CLR 72 47.8 42% 30.01 0.0
03 22:15 SE 15 10.00 Fair CLR 72.5 46.8 40% 30.02 0.0
03 21:55 SE 8 10.00 Fair CLR 70.3 49.1 47% 30.02 0.0
03 21:35 Calm 10.00 Fair CLR 68.5 50.9 53% 30.02 0.0
03 21:15 SE 5 10.00 Fair CLR 67.3 51.3 57% 30.01 0.0
03 20:55 S 6 10.00 Fair CLR 67.5 52.2 58% 30.01 0.0
03 20:35 SE 6 10.00 Fair CLR 68.9 52 55% 30.01 0.0
03 20:15 SE 8 10.00 Fair CLR 70.5 51.4 51% 30 0.0
03 19:55 SE 7 10.00 Fair CLR 71.6 50.9 48% 30 0.0
03 19:35 SE 7 10.00 Fair CLR 72.1 51.4 48% 30 0.0
03 19:15 SE 8 10.00 Fair CLR 75.7 49.8 40% 78 30 0.0
03 18:55 SE 10 10.00 Fair CLR 79.5 48.4 34% 79 30 0.0
03 18:35 SE 9 10.00 Fair CLR 80.8 48.2 32% 80 30 0.0
03 18:15 SE 14 10.00 Fair CLR 82.4 45.9 28% 81 30 0.0
03 17:55 SE 13 10.00 Fair CLR 83.7 45.7 87.3 82.6 26% 81 30 0.0
03 17:35 S 15 9.00 Fair CLR 85.3 39.9 20% 82 30 0.0
03 17:15 S 8 10.00 Fair CLR 86.2 40.8 20% 83 30 0.0
03 16:55 S 7 10.00 Fair CLR 86 41 20% 83 30 0.0
03 16:35 S 10 10.00 Fair CLR 86.2 41 20% 83 30 0.0
03 16:15 S 6 10.00 Fair CLR 86.4 40.3 20% 83 30 0.0
03 15:55 S 5 10.00 Fair CLR 86.4 42.4 21% 83 30.01 0.0
03 15:35 SW 5 10.00 Fair CLR 86.4 43.2 22% 83 30.01 0.0
03 15:15 SE 7 10.00 Fair CLR 85.3 44.4 24% 83 30.01 0.0
03 14:55 SW 7 10.00 Fair CLR 85.5 42.8 22% 83 30.02 0.0
03 14:35 SW 9 10.00 Fair CLR 85.6 45 24% 83 30.03 0.0
03 14:15 SW 6 10.00 Fair CLR 85.3 43.7 23% 82 30.03 0.0
03 13:55 SW 8 10.00 Fair CLR 85.3 46.4 26% 83 30.03 0.0
03 13:35 SW 7 10.00 Fair CLR 84.9 45.5 25% 82 30.03 0.0
03 13:15 SW 9 10.00 Fair CLR 84.6 46.9 27% 82 30.04 0.0
03 12:55 Vrbl 5 10.00 Fair CLR 84.2 44.2 25% 82 30.05 0.0
03 12:35 Vrbl 6 10.00 Fair CLR 83.5 47.1 28% 81 30.05 0.0
03 12:15 W 7 10.00 Fair CLR 83.1 50.4 32% 82 30.05 0.0
03 11:55 SW 12 10.00 Fair CLR 81.9 50.5 81.9 53.1 34% 81 30.06 0.0
03 11:35 W 14 10.00 Fair CLR 81.5 51.8 36% 81 30.06 0.0
03 11:15 SW 12 10.00 Fair CLR 80.6 54 40% 80 30.07 0.0
03 10:55 SW 13 10.00 Fair CLR 78.6 54.5 43% 79 30.07 0.0
03 10:35 SW 12 10.00 Fair CLR 78.1 55.8 46% 79 30.06 0.0
03 10:15 S 10 10.00 Fair CLR 77.9 55 45% 79 30.06 0.0
03 09:55 SW 9 10.00 Fair CLR 75.6 55.4 50% 78 30.06 0.0
03 09:35 S 8 10.00 Fair CLR 74.7 54.1 49% 30.06 0.0
03 09:15 SW 7 10.00 Fair CLR 72.3 54.5 54% 30.06 0.0
03 08:55 Calm 10.00 Fair CLR 69.4 55.9 62% 30.06 0.0
03 08:35 SW 5 10.00 Fair CLR 67.6 54.9 64% 30.05 0.0
03 08:15 Calm 10.00 Fair CLR 63 56.7 80% 30.05 0.0
03 07:55 Calm 9.00 Fair CLR 62.8 54.7 75% 30.05 0.0
03 07:35 SW 5 8.00 Fair CLR 59.7 54.5 83% 30.04 0.0
03 07:15 W 5 9.00 Fair CLR 56.1 52.2 87% 30.04 0.0
03 06:55 W 7 9.00 Fair CLR 54.3 51.3 89% 30.03 0.0
03 06:35 Calm 9.00 Fair CLR 53.4 51.8 94% 30.03 0.0
03 06:15 Calm 8.00 Fair CLR 54.3 52.5 94% 30.02 0.0
03 05:55 W 5 10.00 Fair CLR 54 52.2 60.6 54 94% 30.02 0.0
03 05:35 W 6 9.00 Fair CLR 55 52.9 92% 30.02 0.0
03 05:15 SW 6 10.00 Fair CLR 56.5 53.2 89% 30.01 0.0
03 04:55 Calm 10.00 Fair CLR 56.5 54.1 92% 30.01 0.0
03 04:35 SW 5 10.00 Fair CLR 57.6 53.4 86% 30.02 0.0
03 04:15 SW 6 10.00 Partly Cloudy SCT120 57.7 54.5 89% 30.02 0.0
03 03:55 S 6 10.00 Overcast OVC120 57.9 54.3 88% 30.02 0.0
03 03:35 S 3 10.00 Overcast OVC120 57.2 54.7 91% 30.02 0.0
03 03:15 W 6 10.00 Partly Cloudy SCT120 57 54.7 92% 30.02 0.0
03 02:55 W 10 10.00 Fair CLR 57.4 55.9 95% 30.02 0.0
03 02:35 Calm 10.00 Partly Cloudy SCT110 58.5 56.7 94% 30.02 0.0
03 02:15 SW 3 10.00 Mostly Cloudy BKN110 59.2 57 93% 30.02 0.0
03 01:55 W 6 10.00 Mostly Cloudy BKN110 59.4 57.4 93% 30.02 0.0
03 01:35 W 5 9.00 Mostly Cloudy BKN100 58.8 57.4 95% 30.02 0.0
03 01:15 W 6 10.00 Mostly Cloudy BKN110 59 57.7 96% 30.02 0.0
03 00:55 W 6 10.00 Mostly Cloudy BKN120 58.6 57.2 95% 30.03 0.0
03 00:35 W 6 10.00 A Few Clouds FEW100 58.5 56.8 94% 30.03 0.0
03 00:15 Calm 10.00 Partly Cloudy SCT110 60.4 56.5 87% 30.03 0.0
02 23:55 NE 6 10.00 Thunderstorm in Vicinity SCT110 60.3 57.2 74.3 60.3 90% 30.03 0.0 0.44
02 23:35 Calm 10.00 Mostly Cloudy BKN110 63.1 55.2 76% 30.04 0.0
02 23:15 SE 8 10.00 A Few Clouds FEW120 61.5 56.8 85% 30.06 0.0
02 22:55 SE 7 10.00 Fair CLR 61.9 57.6 86% 30.04 0.0 0.03
02 22:35 SE 8 10.00 A Few Clouds FEW090 61.9 57.6 86% 30.04 0.0 0.03
02 22:15 E 5 10.00 Mostly Cloudy FEW065 BKN090 61.7 57.7 87% 30.04 0.0 0.03
02 21:55 S 9 3.00 Thunderstorm Light Rain FEW011 OVC095 63.7 55.8 76% 30.05 0.0 0.07
02 21:35 W 10 8.00 Light Rain Thunderstorm in Vicinity BKN100 62.6 59.7 90% 30.04 0.0
02 21:15 NW 3 10.00 Partly Cloudy SCT110 62.6 59.4 89% 30.03 0.0
02 20:55 Calm 10.00 Overcast OVC110 63.9 58.5 83% 30.04 0.0 0.34
02 20:35 Calm 10.00 Overcast OVC110 64.6 58.3 80% 30.04 0.0
02 20:15 Calm 10.00 Overcast OVC110 63.7 58.6 84% 30.04 0.0
02 19:55 NE 7 10.00 Partly Cloudy SCT110 62.4 57.4 84% 30.04 0.0
02 19:35 NE 7 10.00 A Few Clouds FEW120 63.5 56.5 78% 30.04 0.0
02 19:15 N 10 9.00 Partly Cloudy SCT110 64.8 57.2 77% 30.06 0.0
02 18:55 NW 8 4.00 Light Rain BKN090 OVC110 64.4 57.6 79% 30.08 0.0 0.34
02 18:35 NW 12 2.00 Overcast with Haze FEW004 SCT049 OVC085 64.2 57 78% 30.09 0.0 0.33
02 18:15 N 15 G 35 0.50 Heavy Rain Thunderstorm in Vicinity FEW004 SCT050 OVC090 63.7 53.8 70% 30.08 0.0 0.31
02 17:55 NW 17 10.00 Mostly Cloudy BKN100 BKN120 77.2 44.8 88.7 77.2 32% 78 30.03 0.0
02 17:35 SE 9 10.00 A Few Clouds FEW120 82.4 45.1 27% 81 30.01 0.0
02 17:15 SE 13 10.00 Fair CLR 84.6 44.6 25% 82 30 0.0
02 16:55 SE 14 10.00 Fair CLR 85.5 44.6 24% 83 30 0.0
02 16:35 S 15 10.00 Fair CLR 86.4 44.8 23% 83 30 0.0
02 16:15 S 14 10.00 Fair CLR 86.9 44.4 23% 84 30 0.0
02 15:55 S 14 G 22 10.00 Fair CLR 87.6 42.1 20% 84 30.01 0.0
02 15:35 S 9 10.00 Fair CLR 87.6 40.5 19% 84 30.01 0.0
02 15:15 S 10 10.00 Fair CLR 87.4 39.2 18% 84 30.02 0.0
02 14:55 SW 13 G 16 10.00 A Few Clouds FEW100 87.8 40.6 19% 84 30.03 0.0
02 14:35 S 12 G 23 10.00 A Few Clouds FEW100 87.4 41.2 20% 84 30.04 0.0
02 14:15 SW 13 10.00 Fair CLR 87.3 41.5 20% 84 30.05 0.0
02 13:55 S 9 10.00 A Few Clouds FEW100 87.6 42.1 20% 84 30.06 0.0
02 13:35 S 7 G 18 10.00 A Few Clouds FEW100 86.5 42.3 21% 83 30.06 0.0
02 13:15 S 10 10.00 Fair CLR 85.8 42.3 22% 83 30.06 0.0
02 12:55 SW 10 G 17 10.00 Fair CLR 86.5 42.6 21% 83 30.07 0.0
02 12:35 SW 9 G 17 10.00 Fair CLR 86.7 43.5 22% 84 30.07 0.0
02 12:15 W 7 10.00 Fair CLR 84 40.5 21% 81 30.08 0.0
02 11:55 W 7 10.00 Fair CLR 85.1 41 85.6 50.9 21% 82 30.09 0.0
02 11:35 W 9 10.00 Fair CLR 84.4 42.4 23% 82 30.1 0.0
02 11:15 Vrbl 5 10.00 Fair CLR 82.4 45.9 28% 81 30.1 0.0
02 10:55 SW 3 10.00 Partly Cloudy SCT120 79.5 46.6 31% 79 30.11 0.0
02 10:35 Calm 10.00 Mostly Cloudy BKN120 78.4 46 32% 78 30.12 0.0
02 10:15 Calm 10.00 Mostly Cloudy BKN120 77.5 46.6 34% 78 30.11 0.0
02 09:55 Calm 10.00 Partly Cloudy SCT110 74.3 46.4 37% 30.12 0.0
02 09:35 W 3 9.00 Mostly Cloudy BKN110 73.4 46.4 38% 30.12 0.0
02 09:15 W 5 10.00 Fair CLR 74.1 45.9 37% 30.11 0.0
02 08:55 Calm 10.00 Fair CLR 72 46.8 41% 30.11 0.0
02 08:35 Calm 10.00 Fair CLR 70 48.4 46% 30.11 0.0
02 08:15 NW 3 10.00 Fair CLR 66.9 48.7 52% 30.11 0.0
02 07:55 W 3 9.00 Fair CLR 61.5 49.5 65% 30.11 0.0
02 07:35 W 3 8.00 Fair CLR 59.2 49.3 70% 30.11 0.0
02 07:15 W 7 9.00 Fair CLR 54.7 48.6 80% 30.1 0.0
02 06:55 W 5 9.00 Fair CLR 51.6 47.5 86% 30.1 0.0
Date Time (mdt) Wind (mph) Vis. (mi.) Weather Sky Cond. Air Dwpt Max. Min. Relative Humidity Wind Chill (°F) Heat Index (°F) altimeter (in) sea level (mb) 1 hr 3 hr 6 hr
6 hour
Temperature (ºF) Pressure Precipitation (in)